KLOZ/LOZ METAR and TAF weather

Enter ICAO airport designator
Station Type Date Time Source
KLOZ METAR 2022/01/19 19:43 UTC NOAA

KLOZ 191943Z AUTO 17003KT 4SM -RA BR FEW005 BKN008 OVC015 05/04 A3002 RMK AO2 RAB04 CIG 007V013 P0001 T00500044


Station Type Date Time Source
KLOZ Decoded METAR 2022/01/19 19:43 UTC NOAA

LONDON-CORBIN AIRPORT, KY, United States (KLOZ) 37-05N 084-04W 362M
Jan 19, 2022 - 02:43 PM EST / 2022.01.19 1943 UTC
Wind: from the S (170 degrees) at 3 MPH (3 KT):0
Visibility: 4 mile(s):0
Sky conditions: overcast
Weather: light rain; mist
Precipitation last hour: 0.01 inches
Temperature: 41.0 F (5.0 C)
Dew Point: 39.9 F (4.4 C)
Relative Humidity: 95%
Pressure (altimeter): 30.02 in. Hg (1016 hPa)
ob: KLOZ 191943Z AUTO 17003KT 4SM -RA BR FEW005 BKN008 OVC015 05/04 A3002 RMK AO2 RAB04 CIG 007V013 P0001 T00500044
cycle: 19

Station Type Date Time Source
KLOZ TAF 2022/01/19 18:39 UTC NOAA

TAF KLOZ 191739Z 1918/2018 20008KT 2SM -RA BR SCT005 OVC015
FM192100 18006KT 2SM RA BR SCT003 OVC007
FM200100 VRB04KT 3/4SM RA BR OVC003
FM200330 36007KT 1/4SM RA FG OVC003
FM200530 36008KT 3/4SM RASN BR OVC007
FM201100 01010KT 2SM BR VCSH OVC010

Example: see airport list